Terminal Aerodrome Forecast
Issued by NWS

Home | Current Version | Previous Version | Text Only | Print | Product List | Glossary On
Versions: 1 2 3 4 5 6 7 8 9 10 11 12 13
054
FTUS45 KTFX 082342
TAFHLN
TAF
KHLN 082342Z 0900/0924 33005KT 6SM HZ BKN030
     FM090800 32005KT 5SM -SN SCT015 OVC020
      TEMPO 0912/0916 2SM -SN OVC010
     FM091800 36005KT P6SM SCT015 OVC030=

USA.gov is the U.S. government's official web portal to all federal, state and local government web resources and services.